createdAt,value
2023-03-05T00:03:16.355Z,22.52
2023-03-05T00:07:16.196Z,22.51
2023-03-05T00:11:16.183Z,22.51
2023-03-05T00:15:16.149Z,22.50
2023-03-05T00:19:16.127Z,22.50
2023-03-05T00:23:16.032Z,22.49
2023-03-05T00:27:16.116Z,22.48
2023-03-05T00:31:16.331Z,22.48
2023-03-05T00:35:16.327Z,22.47
2023-03-05T00:39:16.454Z,22.46
2023-03-05T00:43:16.544Z,22.46
2023-03-05T00:47:16.673Z,22.46
2023-03-05T00:51:16.744Z,22.45
2023-03-05T00:55:16.785Z,22.44
2023-03-05T00:59:16.870Z,22.44
2023-03-05T01:03:16.978Z,22.44
2023-03-05T01:07:17.066Z,22.44
2023-03-05T01:11:17.200Z,22.43
2023-03-05T01:15:17.303Z,22.43
2023-03-05T01:19:18.546Z,22.42
2023-03-05T01:23:17.475Z,22.42
2023-03-05T01:27:17.586Z,22.41
2023-03-05T01:31:17.734Z,22.41
2023-03-05T01:35:17.784Z,22.41
2023-03-05T01:39:17.835Z,22.40
2023-03-05T01:43:17.786Z,22.40
2023-03-05T01:47:17.771Z,22.39
2023-03-05T01:51:17.798Z,22.39
2023-03-05T01:55:17.766Z,22.39
2023-03-05T01:59:17.700Z,22.37
2023-03-05T02:03:17.701Z,22.37
2023-03-05T02:07:17.707Z,22.36
2023-03-05T02:11:17.770Z,22.37
2023-03-05T02:15:17.713Z,22.36
2023-03-05T02:19:17.724Z,22.36
2023-03-05T02:23:17.713Z,22.35
2023-03-05T02:27:17.691Z,22.35
2023-03-05T02:31:17.763Z,22.34
2023-03-05T02:35:17.784Z,22.35
2023-03-05T02:39:17.765Z,22.34
2023-03-05T02:43:17.698Z,22.33
2023-03-05T02:47:17.677Z,22.34
2023-03-05T02:51:17.660Z,22.32
2023-03-05T02:55:17.729Z,22.32
2023-03-05T02:59:17.722Z,22.32
2023-03-05T03:03:17.769Z,22.31
2023-03-05T03:07:17.707Z,22.31
2023-03-05T03:11:17.671Z,22.31
2023-03-05T03:15:17.661Z,22.31
2023-03-05T03:19:17.694Z,22.30
2023-03-05T03:23:17.778Z,22.30
2023-03-05T03:27:17.740Z,22.30
2023-03-05T03:31:17.843Z,22.29
2023-03-05T03:35:17.793Z,22.29
2023-03-05T03:39:17.792Z,22.29
2023-03-05T03:43:17.722Z,22.28
2023-03-05T03:47:17.750Z,22.29
2023-03-05T03:51:17.747Z,22.29
2023-03-05T03:55:17.733Z,22.28
2023-03-05T03:59:17.754Z,22.28
2023-03-05T04:03:17.777Z,22.28
2023-03-05T04:07:17.768Z,22.28
2023-03-05T04:11:17.746Z,22.26
2023-03-05T04:15:17.776Z,22.27
2023-03-05T04:19:17.763Z,22.27
2023-03-05T04:23:17.772Z,22.26
2023-03-05T04:27:17.744Z,22.26
2023-03-05T04:31:17.842Z,22.26
2023-03-05T04:35:17.815Z,22.25
2023-03-05T04:39:17.772Z,22.24
2023-03-05T04:43:17.752Z,22.24
2023-03-05T04:47:17.739Z,22.23
2023-03-05T04:51:17.773Z,22.23
2023-03-05T04:55:17.752Z,22.23
2023-03-05T04:59:17.816Z,22.22
2023-03-05T05:03:17.863Z,22.22
2023-03-05T05:07:17.849Z,22.21
2023-03-05T05:11:17.850Z,22.21
2023-03-05T05:15:17.873Z,22.21
2023-03-05T05:19:17.870Z,22.21
2023-03-05T05:23:17.895Z,22.21
2023-03-05T05:27:17.898Z,22.20
2023-03-05T05:31:18.015Z,22.20
2023-03-05T05:35:18.016Z,22.20
2023-03-05T05:39:20.175Z,22.20
2023-03-05T05:43:18.061Z,22.20
2023-03-05T05:47:18.101Z,22.19
2023-03-05T05:51:18.113Z,22.18
2023-03-05T05:55:18.132Z,22.19
2023-03-05T05:59:18.157Z,22.18
2023-03-05T06:03:18.222Z,22.18
2023-03-05T06:07:18.219Z,22.18
2023-03-05T06:11:19.434Z,22.17
2023-03-05T06:15:18.267Z,22.17
2023-03-05T06:19:18.286Z,22.17
2023-03-05T06:23:18.322Z,22.18
2023-03-05T06:27:18.381Z,22.17
2023-03-05T06:31:18.388Z,22.17
2023-03-05T06:35:18.453Z,22.16
2023-03-05T06:39:18.512Z,22.17
2023-03-05T06:43:18.496Z,22.16
2023-03-05T06:47:18.544Z,22.15
2023-03-05T06:51:18.619Z,22.15
2023-03-05T06:55:18.594Z,22.15
2023-03-05T06:59:18.684Z,22.14
2023-03-05T07:03:18.698Z,22.14
2023-03-05T07:07:18.781Z,22.15
2023-03-05T07:11:18.823Z,22.15
2023-03-05T07:15:18.861Z,22.15
2023-03-05T07:19:18.977Z,22.15
2023-03-05T07:23:18.889Z,22.16
2023-03-05T07:27:18.937Z,22.15
2023-03-05T07:31:19.085Z,22.15
2023-03-05T07:35:19.037Z,22.15
2023-03-05T07:39:19.073Z,22.15
2023-03-05T07:43:19.119Z,22.15
2023-03-05T07:47:19.157Z,22.15
2023-03-05T07:51:19.230Z,22.17
2023-03-05T07:55:19.266Z,22.17
2023-03-05T07:59:19.301Z,22.17
2023-03-05T08:03:19.275Z,22.18
2023-03-05T08:07:19.352Z,22.19
2023-03-05T08:11:19.400Z,22.20
2023-03-05T08:15:19.407Z,22.20
2023-03-05T08:19:19.424Z,22.21
2023-03-05T08:23:19.455Z,22.21
2023-03-05T08:27:19.479Z,22.22
2023-03-05T08:31:19.565Z,22.23
2023-03-05T08:35:19.559Z,22.23
2023-03-05T08:39:19.599Z,22.24
2023-03-05T08:43:19.532Z,22.24
2023-03-05T08:47:19.595Z,22.25
2023-03-05T08:51:19.552Z,22.27
2023-03-05T08:55:19.569Z,22.27
2023-03-05T08:59:19.545Z,22.28
2023-03-05T09:03:19.546Z,22.29
2023-03-05T09:07:19.561Z,22.29
2023-03-05T09:11:19.518Z,22.31
2023-03-05T09:15:19.495Z,22.32
2023-03-05T09:19:19.487Z,22.32
2023-03-05T09:23:19.505Z,22.33
2023-03-05T09:27:19.621Z,22.34
2023-03-05T09:31:19.841Z,22.35
2023-03-05T09:35:19.987Z,22.36
2023-03-05T09:39:19.974Z,22.37
2023-03-05T09:43:20.089Z,22.39
2023-03-05T09:47:20.119Z,22.39
2023-03-05T09:51:20.198Z,22.41
2023-03-05T09:55:20.218Z,22.42
2023-03-05T09:59:20.323Z,22.43
2023-03-05T10:03:20.471Z,22.44
2023-03-05T10:07:20.599Z,22.45
2023-03-05T10:11:20.747Z,22.46
2023-03-05T10:15:20.879Z,22.47
2023-03-05T10:19:21.185Z,22.49
2023-03-05T10:23:21.863Z,22.50
2023-03-05T10:27:21.148Z,22.51
2023-03-05T10:31:21.045Z,22.52
2023-03-05T10:35:20.968Z,22.53
2023-03-05T10:39:20.925Z,22.54
2023-03-05T10:43:20.922Z,22.56
2023-03-05T10:47:20.863Z,22.56
2023-03-05T10:51:21.036Z,22.57
2023-03-05T10:55:21.232Z,22.58
2023-03-05T10:59:21.386Z,22.60
2023-03-05T11:03:21.584Z,22.60
2023-03-05T11:07:21.780Z,22.62
2023-03-05T11:11:22.017Z,22.63
2023-03-05T11:15:22.139Z,22.65
2023-03-05T11:19:22.316Z,22.66
2023-03-05T11:23:22.508Z,22.67
2023-03-05T11:27:22.707Z,22.70
2023-03-05T11:31:22.859Z,22.71
2023-03-05T11:35:23.036Z,22.73
2023-03-05T11:39:23.164Z,22.74
2023-03-05T11:43:23.307Z,22.76
2023-03-05T11:47:23.465Z,22.78
2023-03-05T11:51:23.769Z,22.79
2023-03-05T11:55:23.751Z,22.80
2023-03-05T11:59:23.876Z,22.81
2023-03-05T12:03:24.034Z,22.83
2023-03-05T12:07:24.110Z,22.84
2023-03-05T12:11:24.270Z,22.86
2023-03-05T12:15:24.449Z,22.88
2023-03-05T12:19:24.588Z,22.88
2023-03-05T12:23:24.702Z,22.89
2023-03-05T12:27:24.834Z,22.90
2023-03-05T12:31:25.000Z,22.92
2023-03-05T12:35:25.168Z,22.93
2023-03-05T12:39:25.181Z,22.93
2023-03-05T12:43:25.282Z,22.95
2023-03-05T12:47:25.380Z,22.96
2023-03-05T12:51:25.513Z,22.97
2023-03-05T12:55:25.572Z,22.98
2023-03-05T12:59:25.749Z,22.99
2023-03-05T13:03:25.891Z,23.00
2023-03-05T13:07:25.928Z,23.01
2023-03-05T13:11:25.962Z,23.03
2023-03-05T13:15:26.034Z,23.03
2023-03-05T13:19:26.163Z,23.05
2023-03-05T13:23:26.239Z,23.05
2023-03-05T13:27:26.316Z,23.07
2023-03-05T13:31:26.407Z,23.08
2023-03-05T13:35:26.450Z,23.09
2023-03-05T13:39:26.532Z,23.10
2023-03-05T13:43:26.523Z,23.10
2023-03-05T13:47:26.631Z,23.12
2023-03-05T13:51:26.681Z,23.12
2023-03-05T13:55:26.721Z,23.13
2023-03-05T13:59:26.763Z,23.14
2023-03-05T14:03:26.829Z,23.15
2023-03-05T14:07:26.869Z,23.16
2023-03-05T14:11:26.933Z,23.16
2023-03-05T14:15:26.942Z,23.16
2023-03-05T14:19:26.989Z,23.17
2023-03-05T14:23:27.294Z,23.18
2023-03-05T14:27:27.038Z,23.18
2023-03-05T14:31:27.119Z,23.19
2023-03-05T14:35:27.180Z,23.19
2023-03-05T14:39:27.227Z,23.20
2023-03-05T14:43:27.202Z,23.21
2023-03-05T14:47:27.290Z,23.21
2023-03-05T14:51:27.312Z,23.22
2023-03-05T14:55:27.367Z,23.22
2023-03-05T14:59:27.364Z,23.22
2023-03-05T15:03:27.435Z,23.22
2023-03-05T15:07:27.486Z,23.21
2023-03-05T15:11:27.521Z,23.21
2023-03-05T15:15:27.529Z,23.22
2023-03-05T15:19:27.530Z,23.22
2023-03-05T15:23:27.566Z,23.22
2023-03-05T15:27:27.613Z,23.23
2023-03-05T15:31:27.602Z,23.22
2023-03-05T15:35:27.689Z,23.22
2023-03-05T15:39:27.720Z,23.22
2023-03-05T15:43:27.664Z,23.21
2023-03-05T15:47:27.768Z,23.22
2023-03-05T15:51:27.708Z,23.22
2023-03-05T15:55:27.738Z,23.21
2023-03-05T15:59:27.907Z,23.21
2023-03-05T16:03:27.905Z,23.21
2023-03-05T16:07:27.895Z,23.21
2023-03-05T16:11:27.942Z,23.21
2023-03-05T16:15:27.989Z,23.19
2023-03-05T16:19:28.003Z,23.19
2023-03-05T16:23:28.047Z,23.19
2023-03-05T16:27:28.070Z,23.18
2023-03-05T16:31:28.121Z,23.17
2023-03-05T16:35:28.175Z,23.16
2023-03-05T16:39:28.165Z,23.16
2023-03-05T16:43:28.183Z,23.16
2023-03-05T16:47:28.277Z,23.15
2023-03-05T16:51:28.267Z,23.14
2023-03-05T16:55:28.301Z,23.13
2023-03-05T16:59:28.327Z,23.13
2023-03-05T17:03:28.562Z,23.12
2023-03-05T17:07:28.426Z,23.11
2023-03-05T17:11:28.454Z,23.11
2023-03-05T17:15:28.508Z,23.10
2023-03-05T17:19:28.546Z,23.10
2023-03-05T17:23:28.589Z,23.08
2023-03-05T17:27:28.690Z,23.07
2023-03-05T17:31:28.744Z,23.06
2023-03-05T17:35:28.836Z,23.05
2023-03-05T17:39:28.871Z,23.04
2023-03-05T17:43:28.946Z,23.02
2023-03-05T17:47:29.005Z,23.02
2023-03-05T17:51:29.097Z,23.00
2023-03-05T17:55:29.189Z,23.00
2023-03-05T17:59:29.270Z,22.98
2023-03-05T18:03:29.382Z,22.97
2023-03-05T18:07:29.492Z,22.96
2023-03-05T18:11:29.606Z,22.95
2023-03-05T18:15:29.755Z,22.93
2023-03-05T18:19:29.842Z,22.92
2023-03-05T18:23:29.959Z,22.90
2023-03-05T18:27:30.093Z,22.89
2023-03-05T18:31:30.255Z,22.89
2023-03-05T18:35:30.373Z,22.88
2023-03-05T18:39:30.474Z,22.87
2023-03-05T18:43:30.611Z,22.86
2023-03-05T18:47:30.748Z,22.85
2023-03-05T18:51:30.848Z,22.84
2023-03-05T18:55:31.047Z,22.83
2023-03-05T18:59:31.122Z,22.82
2023-03-05T19:03:31.266Z,22.80
2023-03-05T19:07:31.443Z,22.80
2023-03-05T19:11:31.619Z,22.79
2023-03-05T19:15:31.804Z,22.78
2023-03-05T19:19:31.882Z,22.77
2023-03-05T19:23:32.042Z,22.76
2023-03-05T19:27:32.225Z,22.76
2023-03-05T19:31:32.367Z,22.75
2023-03-05T19:35:32.649Z,22.74
2023-03-05T19:39:32.679Z,22.74
2023-03-05T19:43:32.820Z,22.72
2023-03-05T19:47:32.958Z,22.71
2023-03-05T19:51:33.100Z,22.71
2023-03-05T19:55:33.283Z,22.70
2023-03-05T19:59:33.484Z,22.69
2023-03-05T20:03:33.622Z,22.68
2023-03-05T20:07:33.810Z,22.68
2023-03-05T20:11:33.960Z,22.67
2023-03-05T20:15:34.118Z,22.65
2023-03-05T20:19:34.305Z,22.64
2023-03-05T20:23:34.536Z,22.64
2023-03-05T20:27:34.737Z,22.63
2023-03-05T20:31:34.981Z,22.62
2023-03-05T20:35:35.132Z,22.61
2023-03-05T20:39:35.320Z,22.61
2023-03-05T20:43:35.559Z,22.60
2023-03-05T20:47:35.716Z,22.60
2023-03-05T20:51:35.964Z,22.58
2023-03-05T20:55:36.146Z,22.57
2023-03-05T20:59:36.388Z,22.57
2023-03-05T21:03:36.367Z,22.56
2023-03-05T21:07:36.344Z,22.56
2023-03-05T21:11:36.255Z,22.55
2023-03-05T21:15:36.250Z,22.54
2023-03-05T21:19:36.242Z,22.53
2023-03-05T21:23:36.188Z,22.53
2023-03-05T21:27:36.125Z,22.51
2023-03-05T21:31:36.049Z,22.51
2023-03-05T21:35:36.070Z,22.51
2023-03-05T21:39:36.069Z,22.50
2023-03-05T21:43:36.091Z,22.49
2023-03-05T21:47:35.947Z,22.49
2023-03-05T21:51:35.963Z,22.48
2023-03-05T21:55:35.895Z,22.47
2023-03-05T21:59:35.870Z,22.48
2023-03-05T22:03:35.821Z,22.46
2023-03-05T22:07:35.819Z,22.46
2023-03-05T22:11:35.741Z,22.46
2023-03-05T22:15:35.721Z,22.46
2023-03-05T22:19:35.858Z,22.45
2023-03-05T22:23:35.774Z,22.45
2023-03-05T22:27:35.746Z,22.44
2023-03-05T22:31:35.686Z,22.44
2023-03-05T22:35:35.666Z,22.43
2023-03-05T22:39:35.630Z,22.42
2023-03-05T22:43:35.585Z,22.42
2023-03-05T22:47:35.527Z,22.40
2023-03-05T22:51:35.523Z,22.40
2023-03-05T22:55:35.430Z,22.40
2023-03-05T22:59:35.699Z,22.38
2023-03-05T23:03:35.440Z,22.39
2023-03-05T23:07:35.345Z,22.37
2023-03-05T23:11:35.357Z,22.36
2023-03-05T23:15:35.349Z,22.36
2023-03-05T23:19:35.241Z,22.35
2023-03-05T23:23:35.254Z,22.35
2023-03-05T23:27:35.314Z,22.34
2023-03-05T23:31:35.769Z,22.34
2023-03-05T23:35:35.414Z,22.33
2023-03-05T23:39:35.364Z,22.32
2023-03-05T23:43:35.379Z,22.32
2023-03-05T23:47:35.346Z,22.32
2023-03-05T23:51:35.401Z,22.30
2023-03-05T23:55:35.386Z,22.31
2023-03-05T23:59:35.374Z,22.30
